createdAt,value
2022-08-18T00:01:05.457Z,98366.34
2022-08-18T00:03:55.753Z,98365.47
2022-08-18T00:06:19.938Z,98370.75
2022-08-18T00:08:47.028Z,98360.50
2022-08-18T00:11:13.697Z,98367.75
2022-08-18T00:13:40.272Z,98363.56
2022-08-18T00:16:07.106Z,98362.13
2022-08-18T00:18:33.660Z,98366.84
2022-08-18T00:21:02.240Z,98361.84
2022-08-18T00:23:32.474Z,98372.75
2022-08-18T00:26:00.229Z,98381.53
2022-08-18T00:28:26.819Z,98385.00
2022-08-18T00:30:53.926Z,98388.16
2022-08-18T00:33:21.055Z,98390.34
2022-08-18T00:35:47.632Z,98386.59
2022-08-18T00:38:23.361Z,98382.00
2022-08-18T00:40:53.276Z,98385.97
2022-08-18T00:43:27.546Z,98383.25
2022-08-18T00:45:54.366Z,98392.34
2022-08-18T00:48:24.083Z,98388.47
2022-08-18T00:51:02.935Z,98393.75
2022-08-18T00:53:35.681Z,98390.34
2022-08-18T00:56:11.507Z,98394.81
2022-08-18T00:58:44.507Z,98399.16
2022-08-18T01:01:16.075Z,98392.09
2022-08-18T01:03:47.238Z,98395.72
2022-08-18T01:06:27.192Z,98399.47
2022-08-18T01:08:54.521Z,98393.94
2022-08-18T01:11:21.044Z,98400.97
2022-08-18T01:13:47.795Z,98400.25
2022-08-18T01:16:33.097Z,98392.03
2022-08-18T01:19:17.952Z,98396.00
2022-08-18T01:21:51.046Z,98388.47
2022-08-18T01:24:50.375Z,98403.00
2022-08-18T01:27:18.535Z,98393.31
2022-08-18T01:29:50.577Z,98388.09
2022-08-18T01:32:22.256Z,98392.22
2022-08-18T01:34:51.861Z,98394.72
2022-08-18T01:37:21.997Z,98396.63
2022-08-18T01:41:22.005Z,98405.63
2022-08-18T01:42:37.056Z,98403.50
2022-08-18T01:45:10.567Z,98421.84
2022-08-18T01:47:47.981Z,98413.78
2022-08-18T01:50:15.846Z,98417.91
2022-08-18T01:52:42.422Z,98415.25
2022-08-18T01:55:09.899Z,98417.88
2022-08-18T01:57:42.935Z,98416.03
2022-08-18T02:00:12.441Z,98419.16
2022-08-18T02:02:40.114Z,98415.94
2022-08-18T02:05:17.264Z,98411.66
2022-08-18T02:07:44.540Z,98409.06
2022-08-18T02:10:12.540Z,98411.81
2022-08-18T02:12:43.154Z,98418.25
2022-08-18T02:15:11.363Z,98416.47
2022-08-18T02:17:41.512Z,98407.59
2022-08-18T02:20:10.691Z,98408.72
2022-08-18T02:22:37.794Z,98410.75
2022-08-18T02:25:06.795Z,98412.19
2022-08-18T02:27:34.259Z,98415.25
2022-08-18T02:30:02.640Z,98416.13
2022-08-18T02:32:29.485Z,98421.88
2022-08-18T02:34:59.273Z,98421.13
2022-08-18T02:37:25.967Z,98425.75
2022-08-18T02:39:52.588Z,98426.97
2022-08-18T02:42:19.194Z,98418.81
2022-08-18T02:44:45.737Z,98424.34
2022-08-18T02:47:12.332Z,98416.78
2022-08-18T02:49:38.983Z,98422.66
2022-08-18T02:52:06.126Z,98427.91
2022-08-18T02:54:33.018Z,98427.91
2022-08-18T02:56:59.541Z,98425.22
2022-08-18T02:59:27.891Z,98427.03
2022-08-18T03:01:58.398Z,98423.50
2022-08-18T03:04:29.511Z,98419.78
2022-08-18T03:07:01.786Z,98414.81
2022-08-18T03:09:29.712Z,98419.13
2022-08-18T03:11:57.559Z,98414.75
2022-08-18T03:14:27.481Z,98419.56
2022-08-18T03:16:55.360Z,98422.09
2022-08-18T03:19:30.299Z,98426.59
2022-08-18T03:22:02.895Z,98428.34
2022-08-18T03:24:32.255Z,98423.19
2022-08-18T03:27:00.571Z,98430.25
2022-08-18T03:29:31.934Z,98430.03
2022-08-18T03:32:03.642Z,98426.47
2022-08-18T03:34:30.494Z,98433.59
2022-08-18T03:36:57.121Z,98434.03
2022-08-18T03:39:23.878Z,98419.50
2022-08-18T03:41:59.722Z,98425.41
2022-08-18T03:44:34.098Z,98425.41
2022-08-18T03:47:04.390Z,98426.72
2022-08-18T03:49:33.641Z,98432.56
2022-08-18T03:52:01.356Z,98424.78
2022-08-18T03:54:29.892Z,98430.75
2022-08-18T03:56:56.559Z,98426.47
2022-08-18T03:59:27.245Z,98429.81
2022-08-18T04:01:58.042Z,98423.13
2022-08-18T04:04:27.978Z,98422.09
2022-08-18T04:06:58.704Z,98427.31
2022-08-18T04:09:27.938Z,98432.94
2022-08-18T04:11:55.584Z,98440.28
2022-08-18T04:14:24.947Z,98436.34
2022-08-18T04:16:52.339Z,98427.91
2022-08-18T04:19:26.903Z,98435.38
2022-08-18T04:21:56.132Z,98437.72
2022-08-18T04:24:22.964Z,98435.03
2022-08-18T04:26:50.250Z,98432.84
2022-08-18T04:29:20.403Z,98433.69
2022-08-18T04:31:53.684Z,98435.97
2022-08-18T04:34:24.366Z,98441.16
2022-08-18T04:36:54.374Z,98433.53
2022-08-18T04:39:22.483Z,98434.56
2022-08-18T04:41:50.097Z,98435.69
2022-08-18T04:44:18.096Z,98440.03
2022-08-18T04:46:51.999Z,98449.41
2022-08-18T04:49:21.507Z,98447.09
2022-08-18T04:52:22.632Z,98455.00
2022-08-18T04:54:55.415Z,98451.31
2022-08-18T04:57:23.106Z,98447.88
2022-08-18T04:59:54.011Z,98459.50
2022-08-18T05:02:25.017Z,98449.56
2022-08-18T05:04:51.603Z,98462.59
2022-08-18T05:07:22.777Z,98455.38
2022-08-18T05:09:49.890Z,98452.31
2022-08-18T05:12:22.715Z,98466.06
2022-08-18T05:14:53.812Z,98459.72
2022-08-18T05:17:20.361Z,98464.09
2022-08-18T05:19:49.845Z,98461.91
2022-08-18T05:22:19.584Z,98466.97
2022-08-18T05:24:54.441Z,98461.94
2022-08-18T05:27:21.341Z,98468.59
2022-08-18T05:29:51.560Z,98472.66
2022-08-18T05:32:38.334Z,98466.91
2022-08-18T05:35:10.515Z,98472.28
2022-08-18T05:38:06.343Z,98474.41
2022-08-18T05:40:34.841Z,98468.16
2022-08-18T05:43:03.681Z,98470.78
2022-08-18T05:45:30.349Z,98464.06
2022-08-18T05:48:03.389Z,98466.69
2022-08-18T05:50:34.564Z,98463.47
2022-08-18T05:53:14.094Z,98461.41
2022-08-18T05:56:12.659Z,98464.84
2022-08-18T05:58:44.436Z,98454.84
2022-08-18T06:01:16.505Z,98454.69
2022-08-18T06:03:49.332Z,98455.47
2022-08-18T06:06:19.850Z,98458.72
2022-08-18T06:08:58.920Z,98469.59
2022-08-18T06:11:25.973Z,98477.56
2022-08-18T06:13:54.246Z,98478.19
2022-08-18T06:16:26.557Z,98466.34
2022-08-18T06:19:28.715Z,98471.31
2022-08-18T06:22:15.222Z,98466.56
2022-08-18T06:24:46.751Z,98464.66
2022-08-18T06:27:39.622Z,98464.28
2022-08-18T06:30:26.829Z,98467.03
2022-08-18T06:33:12.728Z,98477.94
2022-08-18T06:35:44.751Z,98486.06
2022-08-18T06:38:34.593Z,98488.22
2022-08-18T06:41:40.612Z,98490.94
2022-08-18T06:44:05.799Z,98492.75
2022-08-18T06:46:36.888Z,98488.41
2022-08-18T06:49:06.741Z,98486.50
2022-08-18T06:51:36.277Z,98490.94
2022-08-18T06:54:05.274Z,98486.34
2022-08-18T06:56:40.755Z,98486.19
2022-08-18T06:59:15.054Z,98493.31
2022-08-18T07:01:42.122Z,98497.19
2022-08-18T07:04:08.557Z,98499.97
2022-08-18T07:06:35.028Z,98498.69
2022-08-18T07:09:20.633Z,98498.34
2022-08-18T07:12:16.274Z,98495.50
2022-08-18T07:14:44.939Z,98502.47
2022-08-18T07:17:22.080Z,98509.28
2022-08-18T07:19:56.008Z,98502.34
2022-08-18T07:22:22.432Z,98495.91
2022-08-18T07:25:05.857Z,98494.78
2022-08-18T07:27:52.844Z,98502.59
2022-08-18T07:30:19.519Z,98499.16
2022-08-18T07:32:52.986Z,98505.88
2022-08-18T07:35:23.894Z,98510.72
2022-08-18T07:37:58.583Z,98507.16
2022-08-18T07:40:48.251Z,98510.53
2022-08-18T07:43:17.390Z,98507.19
2022-08-18T07:45:45.616Z,98512.06
2022-08-18T07:51:10.209Z,98505.44
2022-08-18T07:53:42.730Z,98510.84
2022-08-18T07:56:39.906Z,98511.78
2022-08-18T07:59:09.273Z,98510.44
2022-08-18T08:01:46.614Z,98514.81
2022-08-18T08:04:25.078Z,98519.88
2022-08-18T08:07:23.408Z,98521.81
2022-08-18T08:10:07.620Z,98524.16
2022-08-18T08:12:39.098Z,98520.75
2022-08-18T08:15:08.352Z,98514.28
2022-08-18T08:17:42.596Z,98511.03
2022-08-18T08:20:16.261Z,98514.50
2022-08-18T08:22:50.454Z,98510.84
2022-08-18T08:25:45.240Z,98516.97
2022-08-18T08:28:39.413Z,98513.19
2022-08-18T08:31:32.985Z,98506.91
2022-08-18T08:34:06.246Z,98510.25
2022-08-18T08:36:35.869Z,98502.94
2022-08-18T08:39:07.201Z,98516.66
2022-08-18T08:41:51.189Z,98511.72
2022-08-18T08:44:23.514Z,98515.78
2022-08-18T08:46:56.148Z,98522.06
2022-08-18T08:49:27.621Z,98525.66
2022-08-18T08:52:01.287Z,98521.44
2022-08-18T08:54:39.919Z,98521.63
2022-08-18T08:57:07.010Z,98524.56
2022-08-18T08:59:40.974Z,98513.47
2022-08-18T09:02:27.034Z,98522.06
2022-08-18T09:05:14.728Z,98518.13
2022-08-18T09:07:47.334Z,98521.44
2022-08-18T09:10:13.728Z,98506.50
2022-08-18T09:12:40.086Z,98507.28
2022-08-18T09:15:06.715Z,98515.88
2022-08-18T09:17:45.658Z,98517.31
2022-08-18T09:20:24.263Z,98525.31
2022-08-18T09:22:53.072Z,98525.72
2022-08-18T09:25:31.580Z,98521.59
2022-08-18T09:28:29.724Z,98523.94
2022-08-18T09:31:02.469Z,98525.84
2022-08-18T09:33:42.001Z,98535.72
2022-08-18T09:36:33.936Z,98533.75
2022-08-18T09:39:24.741Z,98541.41
2022-08-18T09:41:51.215Z,98534.31
2022-08-18T09:44:37.057Z,98540.16
2022-08-18T09:47:10.195Z,98542.91
2022-08-18T09:49:42.091Z,98541.78
2022-08-18T09:55:16.514Z,98537.41
2022-08-18T09:57:44.726Z,98542.47
2022-08-18T10:00:12.925Z,98543.63
2022-08-18T10:02:40.402Z,98540.53
2022-08-18T10:05:15.959Z,98538.81
2022-08-18T10:08:03.479Z,98539.88
2022-08-18T10:11:00.923Z,98539.88
2022-08-18T10:13:49.392Z,98537.84
2022-08-18T10:16:23.444Z,98534.19
2022-08-18T10:18:59.025Z,98529.94
2022-08-18T10:21:31.351Z,98535.34
2022-08-18T10:24:29.892Z,98524.53
2022-08-18T10:29:50.388Z,98538.81
2022-08-18T10:32:18.276Z,98542.66
2022-08-18T10:34:51.506Z,98549.91
2022-08-18T10:37:37.530Z,98550.09
2022-08-18T10:40:04.016Z,98547.66
2022-08-18T10:42:39.411Z,98550.63
2022-08-18T10:45:22.020Z,98552.56
2022-08-18T10:48:11.782Z,98549.28
2022-08-18T10:50:44.442Z,98547.94
2022-08-18T10:53:39.195Z,98551.66
2022-08-18T10:56:05.203Z,98549.63
2022-08-18T10:58:56.533Z,98545.88
2022-08-18T11:01:33.017Z,98542.56
2022-08-18T11:04:33.526Z,98543.81
2022-08-18T11:07:07.756Z,98553.13
2022-08-18T11:09:35.158Z,98552.44
2022-08-18T11:12:08.075Z,98547.47
2022-08-18T11:14:38.157Z,98539.13
2022-08-18T11:17:07.050Z,98540.91
2022-08-18T11:19:42.001Z,98536.69
2022-08-18T11:25:28.994Z,98530.81
2022-08-18T11:27:56.469Z,98538.56
2022-08-18T11:30:30.848Z,98537.25
2022-08-18T11:32:59.469Z,98531.69
2022-08-18T11:35:34.298Z,98533.69
2022-08-18T11:38:12.491Z,98542.63
2022-08-18T11:43:30.003Z,98532.34
2022-08-18T11:46:27.750Z,98525.78
2022-08-18T11:48:56.399Z,98532.63
2022-08-18T11:51:24.730Z,98527.44
2022-08-18T11:53:58.026Z,98522.38
2022-08-18T11:56:30.871Z,98536.69
2022-08-18T11:59:03.068Z,98536.31
2022-08-18T12:01:31.030Z,98534.94
2022-08-18T12:04:18.943Z,98532.34
2022-08-18T12:06:45.576Z,98526.47
2022-08-18T12:09:30.583Z,98522.09
2022-08-18T12:12:07.690Z,98523.38
2022-08-18T12:14:50.888Z,98524.41
2022-08-18T12:17:18.056Z,98519.72
2022-08-18T12:19:44.555Z,98524.13
2022-08-18T12:22:18.517Z,98517.19
2022-08-18T12:24:46.545Z,98519.56
2022-08-18T12:27:21.481Z,98518.22
2022-08-18T12:29:49.505Z,98518.59
2022-08-18T12:32:18.305Z,98535.44
2022-08-18T12:35:09.157Z,98534.47
2022-08-18T12:40:24.244Z,98546.28
2022-08-18T12:42:51.006Z,98541.88
2022-08-18T12:45:17.665Z,98545.75
2022-08-18T12:47:44.130Z,98536.25
2022-08-18T12:50:11.436Z,98534.34
2022-08-18T12:52:38.425Z,98540.94
2022-08-18T12:55:08.618Z,98531.22
2022-08-18T12:57:52.107Z,98526.25
2022-08-18T13:00:21.088Z,98523.63
2022-08-18T13:02:54.991Z,98525.56
2022-08-18T13:05:26.641Z,98518.63
2022-08-18T13:08:00.216Z,98525.75
2022-08-18T13:10:45.538Z,98530.66
2022-08-18T13:13:14.547Z,98531.50
2022-08-18T13:15:44.396Z,98538.78
2022-08-18T13:18:29.006Z,98539.31
2022-08-18T13:20:57.597Z,98514.81
2022-08-18T13:23:25.907Z,98497.81
2022-08-18T13:25:59.289Z,98493.56
2022-08-18T13:28:30.507Z,98482.94
2022-08-18T13:30:57.468Z,98487.47
2022-08-18T13:33:56.223Z,98481.47
2022-08-18T13:36:11.672Z,98479.28
2022-08-18T13:38:43.306Z,98479.47
2022-08-18T13:41:15.661Z,98484.72
2022-08-18T13:43:44.415Z,98493.09
2022-08-18T13:46:14.120Z,98491.69
2022-08-18T13:48:42.669Z,98494.91
2022-08-18T13:51:14.219Z,98492.22
2022-08-18T13:53:57.683Z,98493.16
2022-08-18T13:56:31.650Z,98498.28
2022-08-18T13:58:58.350Z,98489.66
2022-08-18T14:01:44.690Z,98487.06
2022-08-18T14:04:15.003Z,98478.19
2022-08-18T14:06:46.797Z,98480.19
2022-08-18T14:09:36.639Z,98478.44
2022-08-18T14:12:05.598Z,98480.00
2022-08-18T14:14:33.261Z,98477.72
2022-08-18T14:17:00.895Z,98486.88
2022-08-18T14:22:36.279Z,98489.75
2022-08-18T14:25:22.390Z,98498.78
2022-08-18T14:27:56.246Z,98497.44
2022-08-18T14:30:26.782Z,98488.66
2022-08-18T14:32:53.789Z,98491.75
2022-08-18T14:35:33.655Z,98483.47
2022-08-18T14:38:09.136Z,98478.16
2022-08-18T14:40:37.121Z,98471.50
2022-08-18T14:43:09.024Z,98462.84
2022-08-18T14:45:36.170Z,98463.13
2022-08-18T14:48:07.435Z,98462.50
2022-08-18T14:50:37.825Z,98456.75
2022-08-18T14:53:06.238Z,98464.31
2022-08-18T14:55:35.911Z,98462.13
2022-08-18T14:58:02.950Z,98465.38
2022-08-18T15:00:29.460Z,98473.75
2022-08-18T15:02:59.712Z,98478.41
2022-08-18T15:05:27.158Z,98473.97
2022-08-18T15:07:53.736Z,98469.91
2022-08-18T15:10:23.740Z,98471.44
2022-08-18T15:12:54.687Z,98474.22
2022-08-18T15:15:22.410Z,98467.44
2022-08-18T15:17:50.485Z,98466.44
2022-08-18T15:20:20.015Z,98468.84
2022-08-18T15:23:08.871Z,98467.19
2022-08-18T15:25:51.239Z,98461.91
2022-08-18T15:28:23.715Z,98464.84
2022-08-18T15:31:16.489Z,98462.13
2022-08-18T15:33:38.900Z,98460.41
2022-08-18T15:36:05.407Z,98463.97
2022-08-18T15:38:36.497Z,98465.69
2022-08-18T15:41:05.949Z,98465.63
2022-08-18T15:43:39.918Z,98460.06
2022-08-18T15:46:07.493Z,98464.66
2022-08-18T15:48:35.092Z,98470.91
2022-08-18T15:51:08.064Z,98473.56
2022-08-18T15:53:44.442Z,98467.28
2022-08-18T15:56:15.822Z,98454.75
2022-08-18T15:58:42.643Z,98450.31
2022-08-18T16:01:29.844Z,98459.13
2022-08-18T16:03:57.291Z,98460.06
2022-08-18T16:06:27.560Z,98454.75
2022-08-18T16:08:58.685Z,98455.47
2022-08-18T16:11:29.302Z,98454.41
2022-08-18T16:13:58.726Z,98453.38
2022-08-18T16:16:35.403Z,98459.63
2022-08-18T16:19:02.530Z,98453.44
2022-08-18T16:21:29.184Z,98455.88
2022-08-18T16:23:56.952Z,98455.28
2022-08-18T16:26:23.414Z,98455.63
2022-08-18T16:28:52.344Z,98459.97
2022-08-18T16:31:24.668Z,98456.31
2022-08-18T16:33:52.521Z,98458.84
2022-08-18T16:36:18.946Z,98458.34
2022-08-18T16:38:48.749Z,98454.00
2022-08-18T16:41:20.554Z,98448.41
2022-08-18T16:43:47.624Z,98447.91
2022-08-18T16:46:16.464Z,98449.56
2022-08-18T16:48:45.758Z,98450.41
2022-08-18T16:51:13.208Z,98455.13
2022-08-18T16:53:40.315Z,98455.28
2022-08-18T16:56:11.081Z,98456.06
2022-08-18T16:58:56.115Z,98453.19
2022-08-18T17:01:49.061Z,98455.78
2022-08-18T17:04:20.835Z,98444.84
2022-08-18T17:06:48.647Z,98445.78
2022-08-18T17:09:18.863Z,98443.94
2022-08-18T17:11:51.797Z,98440.38
2022-08-18T17:14:19.727Z,98439.00
2022-08-18T17:16:57.426Z,98429.00
2022-08-18T17:19:25.083Z,98430.56
2022-08-18T17:21:52.055Z,98431.88
2022-08-18T17:24:31.411Z,98429.50
2022-08-18T17:27:03.942Z,98426.03
2022-08-18T17:29:50.227Z,98426.22
2022-08-18T17:32:31.654Z,98430.66
2022-08-18T17:35:04.012Z,98435.25
2022-08-18T17:37:30.927Z,98432.66
2022-08-18T17:40:04.091Z,98431.69
2022-08-18T17:42:31.389Z,98433.25
2022-08-18T17:45:00.488Z,98431.97
2022-08-18T17:47:30.344Z,98436.31
2022-08-18T17:50:26.969Z,98438.22
2022-08-18T17:52:58.258Z,98439.19
2022-08-18T17:55:29.104Z,98431.09
2022-08-18T17:58:06.979Z,98440.13
2022-08-18T18:00:33.408Z,98440.28
2022-08-18T18:03:00.323Z,98442.13
2022-08-18T18:05:31.931Z,98452.03
2022-08-18T18:07:59.461Z,98451.34
2022-08-18T18:10:40.202Z,98441.59
2022-08-18T18:13:30.849Z,98437.22
2022-08-18T18:16:02.348Z,98445.41
2022-08-18T18:18:34.650Z,98437.59
2022-08-18T18:21:08.547Z,98434.88
2022-08-18T18:23:41.097Z,98439.50
2022-08-18T18:26:33.012Z,98437.41
2022-08-18T18:29:13.772Z,98427.59
2022-08-18T18:31:43.954Z,98437.66
2022-08-18T18:34:23.450Z,98436.06
2022-08-18T18:36:55.034Z,98441.66
2022-08-18T18:39:34.038Z,98448.06
2022-08-18T18:42:14.922Z,98445.28
2022-08-18T18:44:49.181Z,98447.34
2022-08-18T18:47:24.638Z,98453.69
2022-08-18T18:49:55.087Z,98456.53
2022-08-18T18:52:28.491Z,98455.56
2022-08-18T18:55:02.696Z,98452.72
2022-08-18T18:57:32.225Z,98461.91
2022-08-18T19:00:18.093Z,98474.78
2022-08-18T19:03:05.886Z,98478.50
2022-08-18T19:05:35.552Z,98476.69
2022-08-18T19:08:20.723Z,98477.38
2022-08-18T19:11:02.000Z,98478.25
2022-08-18T19:13:35.020Z,98485.53
2022-08-18T19:16:28.177Z,98481.91
2022-08-18T19:19:38.464Z,98476.81
2022-08-18T19:22:05.277Z,98468.81
2022-08-18T19:24:38.539Z,98471.59
2022-08-18T19:27:07.100Z,98471.59
2022-08-18T19:29:37.661Z,98468.75
2022-08-18T19:32:15.834Z,98470.72
2022-08-18T19:34:51.319Z,98470.66
2022-08-18T19:37:27.200Z,98474.13
2022-08-18T19:40:03.611Z,98477.78
2022-08-18T19:42:39.175Z,98474.38
2022-08-18T19:45:33.410Z,98459.09
2022-08-18T19:48:23.881Z,98464.66
2022-08-18T19:50:56.547Z,98464.81
2022-08-18T19:53:22.952Z,98471.06
2022-08-18T19:56:02.646Z,98462.13
2022-08-18T19:58:58.539Z,98471.38
2022-08-18T20:01:47.149Z,98465.22
2022-08-18T20:04:23.592Z,98465.28
2022-08-18T20:07:25.600Z,98463.38
2022-08-18T20:10:06.992Z,98468.94
2022-08-18T20:12:37.536Z,98464.44
2022-08-18T20:15:16.549Z,98458.09
2022-08-18T20:17:59.893Z,98463.56
2022-08-18T20:20:29.331Z,98456.34
2022-08-18T20:22:57.581Z,98455.56
2022-08-18T20:25:24.269Z,98457.38
2022-08-18T20:27:59.796Z,98461.81
2022-08-18T20:30:33.997Z,98473.38
2022-08-18T20:33:04.816Z,98473.75
2022-08-18T20:35:32.404Z,98470.19
2022-08-18T20:38:12.680Z,98472.09
2022-08-18T20:40:44.644Z,98476.72
2022-08-18T20:43:28.270Z,98473.22
2022-08-18T20:46:13.545Z,98475.75
2022-08-18T20:48:46.147Z,98475.09
2022-08-18T20:51:18.405Z,98471.94
2022-08-18T20:53:58.396Z,98481.84
2022-08-18T20:56:43.882Z,98485.34
2022-08-18T20:59:20.368Z,98487.06
2022-08-18T21:02:01.016Z,98489.84
2022-08-18T21:04:35.119Z,98496.81
2022-08-18T21:07:11.963Z,98506.47
2022-08-18T21:09:39.659Z,98499.28
2022-08-18T21:12:06.104Z,98505.91
2022-08-18T21:14:32.517Z,98491.88
2022-08-18T21:17:00.294Z,98492.75
2022-08-18T21:19:28.317Z,98496.19
2022-08-18T21:22:00.999Z,98498.88
2022-08-18T21:24:33.552Z,98497.91
2022-08-18T21:27:03.874Z,98494.53
2022-08-18T21:29:44.284Z,98491.88
2022-08-18T21:32:22.395Z,98490.31
2022-08-18T21:34:49.337Z,98492.84
2022-08-18T21:37:17.210Z,98484.66
2022-08-18T21:39:49.860Z,98492.44
2022-08-18T21:42:18.048Z,98491.50
2022-08-18T21:44:45.940Z,98486.91
2022-08-18T21:47:15.471Z,98478.81
2022-08-18T21:49:56.282Z,98473.53
2022-08-18T21:52:24.256Z,98470.06
2022-08-18T21:54:50.792Z,98473.34
2022-08-18T21:57:27.745Z,98467.19
2022-08-18T22:00:20.236Z,98471.94
2022-08-18T22:02:56.289Z,98477.47
2022-08-18T22:05:28.428Z,98481.94
2022-08-18T22:07:55.272Z,98481.97
2022-08-18T22:10:42.199Z,98475.97
2022-08-18T22:13:36.611Z,98484.91
2022-08-18T22:16:20.773Z,98488.47
2022-08-18T22:18:47.578Z,98486.66
2022-08-18T22:21:33.211Z,98486.66
2022-08-18T22:24:18.814Z,98491.16
2022-08-18T22:26:47.671Z,98491.25
2022-08-18T22:29:26.447Z,98502.81
2022-08-18T22:31:56.227Z,98499.16
2022-08-18T22:34:27.801Z,98497.59
2022-08-18T22:36:55.984Z,98499.56
2022-08-18T22:39:35.210Z,98500.38
2022-08-18T22:42:02.141Z,98501.31
2022-08-18T22:44:28.862Z,98510.72
2022-08-18T22:46:55.353Z,98517.78
2022-08-18T22:49:23.449Z,98522.31
2022-08-18T22:51:51.409Z,98523.00
2022-08-18T22:54:18.608Z,98518.16
2022-08-18T22:56:56.415Z,98511.13
2022-08-18T22:59:28.505Z,98511.22
2022-08-18T23:01:58.523Z,98506.13
2022-08-18T23:04:25.847Z,98505.09
2022-08-18T23:06:55.837Z,98504.22
2022-08-18T23:09:27.152Z,98504.38
2022-08-18T23:11:55.140Z,98501.69
2022-08-18T23:14:22.341Z,98497.59
2022-08-18T23:16:52.140Z,98496.00
2022-08-18T23:19:19.760Z,98498.78
2022-08-18T23:21:46.362Z,98497.16
2022-08-18T23:24:14.339Z,98494.28
2022-08-18T23:26:40.920Z,98491.94
2022-08-18T23:29:07.710Z,98495.50
2022-08-18T23:31:37.496Z,98492.09
2022-08-18T23:34:04.479Z,98488.47
2022-08-18T23:36:31.407Z,98493.84
2022-08-18T23:38:58.161Z,98496.38
2022-08-18T23:41:24.717Z,98497.16
2022-08-18T23:43:51.378Z,98501.69
2022-08-18T23:46:28.504Z,98492.91
2022-08-18T23:48:57.290Z,98487.84
2022-08-18T23:51:36.986Z,98484.31
2022-08-18T23:54:05.131Z,98492.56
2022-08-18T23:56:31.800Z,98493.41
2022-08-18T23:58:58.736Z,98492.72
